Time;durP1;ratioP1;P1;durP2;ratioP2;P2;SDS_P1;SDS_P2;PMS_P1;PMS_P2;Temp;Humidity;BMP_temperature;BMP_pressure;BME280_temperature;BME280_humidity;BME280_pressure;Samples;Min_cycle;Max_cycle;Signal;HPM_P1;HPM_P2
2023/11/07 00:01:49;;;;;;;7.65;5.25;;;16.50;69.50;;;;;;5049034;28;20525;-67
2023/11/07 00:04:15;;;;;;;8.95;4.75;;;16.40;69.40;;;;;;5049831;28;20029;-67
2023/11/07 00:06:41;;;;;;;7.20;4.75;;;16.40;69.50;;;;;;5050850;28;20029;-64
2023/11/07 00:09:07;;;;;;;7.07;4.88;;;16.40;69.40;;;;;;5049738;28;20116;-64
2023/11/07 00:11:34;;;;;;;7.53;4.10;;;16.50;69.50;;;;;;5049493;28;20453;-66
2023/11/07 00:13:59;;;;;;;7.50;4.20;;;16.50;69.50;;;;;;5050131;28;20121;-66
2023/11/07 00:16:27;;;;;;;6.40;4.60;;;16.50;69.50;;;;;;5049678;28;20134;-67
2023/11/07 00:18:53;;;;;;;8.27;4.18;;;16.40;69.40;;;;;;5051086;28;20479;-66
2023/11/07 00:21:18;;;;;;;5.72;3.63;;;16.50;69.50;;;;;;5051257;28;20124;-66
2023/11/07 00:23:44;;;;;;;5.40;3.92;;;16.50;69.50;;;;;;5051577;28;20025;-66
2023/11/07 00:26:09;;;;;;;6.20;3.38;;;16.40;69.40;;;;;;5051145;28;20025;-66
2023/11/07 00:28:36;;;;;;;4.20;3.13;;;16.50;69.50;;;;;;5052743;28;20396;-65
2023/11/07 00:31:02;;;;;;;5.68;3.45;;;16.40;69.40;;;;;;5052037;28;20396;-65
2023/11/07 00:33:28;;;;;;;5.10;3.10;;;16.40;69.40;;;;;;5051100;28;20036;-64
2023/11/07 00:35:54;;;;;;;6.15;2.95;;;16.40;69.40;;;;;;5050469;28;20036;-66
2023/11/07 00:38:19;;;;;;;5.10;3.28;;;16.40;69.40;;;;;;5053927;28;20029;-65
2023/11/07 00:40:45;;;;;;;4.72;2.85;;;16.40;69.40;;;;;;5051784;28;20115;-65
2023/11/07 00:43:11;;;;;;;4.68;2.50;;;16.50;69.50;;;;;;5049314;28;20125;-65
2023/11/07 00:45:36;;;;;;;3.92;2.63;;;16.40;69.40;;;;;;5049425;28;20422;-64
2023/11/07 00:48:02;;;;;;;3.83;2.72;;;16.40;69.40;;;;;;5049839;28;20025;-65
2023/11/07 00:50:27;;;;;;;4.35;2.67;;;16.50;69.50;;;;;;5049377;28;20025;-64
2023/11/07 00:52:53;;;;;;;4.25;2.45;;;16.40;69.40;;;;;;5049052;28;20984;-63
2023/11/07 00:55:18;;;;;;;4.40;2.05;;;16.40;69.40;;;;;;5049846;28;20033;-63
2023/11/07 00:57:44;;;;;;;5.30;2.45;;;16.50;69.50;;;;;;5048327;28;20033;-64
2023/11/07 01:00:10;;;;;;;3.90;2.53;;;16.40;69.40;;;;;;5041353;28;20128;-66
2023/11/07 01:02:35;;;;;;;3.08;1.95;;;16.40;69.40;;;;;;5042415;28;20099;-65
2023/11/07 01:05:02;;;;;;;2.90;1.80;;;16.40;69.40;;;;;;5043429;28;20486;-65
2023/11/07 01:07:27;;;;;;;2.95;1.80;;;16.50;69.40;;;;;;5042117;28;20491;-65
2023/11/07 01:09:53;;;;;;;3.38;1.95;;;16.40;69.40;;;;;;5042185;28;20120;-63
2023/11/07 01:12:18;;;;;;;3.42;1.85;;;16.50;69.40;;;;;;5039122;28;20033;-63
2023/11/07 01:14:44;;;;;;;3.33;2.25;;;16.40;69.40;;;;;;5043627;28;20094;-66
2023/11/07 01:17:09;;;;;;;2.63;1.75;;;16.40;69.40;;;;;;5036591;28;20120;-66
2023/11/07 01:19:35;;;;;;;2.50;1.70;;;16.50;69.40;;;;;;5040336;28;20051;-66
2023/11/07 01:22:00;;;;;;;2.00;1.55;;;16.40;69.40;;;;;;5046138;28;20021;-65
2023/11/07 01:24:26;;;;;;;4.20;1.45;;;16.50;69.50;;;;;;5044553;28;20032;-66
2023/11/07 01:26:52;;;;;;;2.80;1.55;;;16.40;69.40;;;;;;5045801;28;20461;-64
2023/11/07 01:29:17;;;;;;;2.50;1.88;;;16.50;69.40;;;;;;5043157;28;20108;-65
2023/11/07 01:31:48;;;;;;;2.15;1.08;;;16.40;69.30;;;;;;5041877;28;20125;-66
2023/11/07 01:34:14;;;;;;;2.00;1.27;;;16.50;69.40;;;;;;5042588;28;20124;-66
2023/11/07 01:36:39;;;;;;;1.73;1.13;;;16.40;69.40;;;;;;5041624;28;20117;-63
2023/11/07 01:39:05;;;;;;;1.17;1.08;;;16.40;69.40;;;;;;5041468;28;20033;-65
2023/11/07 01:41:31;;;;;;;2.03;0.98;;;16.40;69.40;;;;;;5039991;28;20041;-65
2023/11/07 01:43:56;;;;;;;1.50;1.05;;;16.40;69.40;;;;;;5038724;28;20087;-65
2023/11/07 01:46:22;;;;;;;1.35;1.00;;;16.40;69.40;;;;;;5036055;28;20033;-64
2023/11/07 01:48:48;;;;;;;1.70;0.93;;;16.40;69.40;;;;;;5040503;28;20098;-64
2023/11/07 01:51:14;;;;;;;1.73;1.10;;;16.50;69.40;;;;;;5042422;28;20039;-65
2023/11/07 01:53:40;;;;;;;2.45;1.35;;;16.40;69.30;;;;;;5042125;28;20449;-61
2023/11/07 01:56:07;;;;;;;2.10;1.02;;;16.40;69.30;;;;;;5041730;28;20025;-64
2023/11/07 01:58:34;;;;;;;2.35;1.38;;;16.50;69.40;;;;;;5042318;28;20044;-65
2023/11/07 02:01:00;;;;;;;1.75;1.08;;;16.40;69.30;;;;;;5039189;28;20029;-65
2023/11/07 02:03:26;;;;;;;1.23;0.85;;;16.40;69.30;;;;;;5047502;28;20025;-65
2023/11/07 02:05:51;;;;;;;1.58;1.30;;;16.50;69.40;;;;;;5048516;28;20017;-66
2023/11/07 02:08:20;;;;;;;1.90;0.98;;;16.40;69.30;;;;;;5049984;28;20450;-65
2023/11/07 02:10:46;;;;;;;1.10;0.70;;;16.40;69.30;;;;;;5048789;28;20040;-64
2023/11/07 02:13:11;;;;;;;1.25;0.70;;;16.40;69.30;;;;;;5046740;28;20087;-65
2023/11/07 02:15:38;;;;;;;1.20;0.80;;;16.50;69.40;;;;;;5047840;28;20464;-64
2023/11/07 02:18:04;;;;;;;1.30;0.90;;;16.40;69.30;;;;;;5049924;28;20036;-63
2023/11/07 02:20:31;;;;;;;1.40;0.77;;;16.40;69.30;;;;;;5050955;28;20027;-63
2023/11/07 02:23:06;;;;;;;1.40;0.75;;;16.40;69.30;;;;;;5048931;28;20108;-65
2023/11/07 02:25:32;;;;;;;1.50;0.90;;;16.40;69.30;;;;;;5047404;28;20036;-66
2023/11/07 02:27:58;;;;;;;0.77;0.57;;;16.40;69.30;;;;;;5046615;28;20017;-66
2023/11/07 02:30:25;;;;;;;1.23;0.60;;;16.40;69.30;;;;;;5049495;28;20036;-66
2023/11/07 02:32:51;;;;;;;1.38;0.55;;;16.40;69.30;;;;;;5048082;28;20032;-65
2023/11/07 02:35:16;;;;;;;3.00;0.73;;;16.40;69.30;;;;;;5047446;28;20025;-65
2023/11/07 02:37:46;;;;;;;1.08;0.70;;;16.40;69.30;;;;;;5047215;28;20414;-60
2023/11/07 02:40:11;;;;;;;1.00;0.57;;;16.40;69.30;;;;;;5048939;28;20138;-66
2023/11/07 02:42:37;;;;;;;1.35;0.50;;;16.40;69.30;;;;;;5050292;28;20064;-66
2023/11/07 02:45:03;;;;;;;0.90;0.60;;;16.40;69.30;;;;;;5047463;28;20025;-65
2023/11/07 02:47:29;;;;;;;1.17;0.60;;;16.40;69.30;;;;;;5047003;28;20131;-65
2023/11/07 02:49:55;;;;;;;1.00;0.50;;;16.40;69.30;;;;;;5047852;28;20024;-65
2023/11/07 02:52:20;;;;;;;1.20;0.77;;;16.50;69.40;;;;;;5047907;28;20037;-66
2023/11/07 02:54:46;;;;;;;0.77;0.50;;;16.40;69.30;;;;;;5048347;28;20053;-64
2023/11/07 02:57:12;;;;;;;1.27;0.70;;;16.40;69.30;;;;;;5046676;28;20036;-66
2023/11/07 02:59:39;;;;;;;0.85;0.50;;;16.40;69.30;;;;;;5042632;28;20025;-65
2023/11/07 03:02:04;;;;;;;0.70;0.50;;;16.40;69.30;;;;;;5041734;28;20082;-66
2023/11/07 03:04:30;;;;;;;0.60;0.40;;;16.40;69.30;;;;;;5040852;28;20495;-65
2023/11/07 03:06:55;;;;;;;1.98;0.80;;;16.40;69.30;;;;;;5047241;28;20025;-66
2023/11/07 03:09:21;;;;;;;1.40;0.60;;;16.40;69.30;;;;;;5043695;28;20085;-65
2023/11/07 03:11:47;;;;;;;1.90;0.50;;;16.40;69.30;;;;;;5044393;28;20090;-65
2023/11/07 03:14:12;;;;;;;0.95;0.50;;;16.40;69.30;;;;;;5038897;28;20032;-66
2023/11/07 03:16:40;;;;;;;1.02;0.40;;;16.40;69.30;;;;;;5041956;28;20032;-65
2023/11/07 03:19:07;;;;;;;1.10;0.50;;;16.40;69.30;;;;;;5043341;28;20048;-66
2023/11/07 03:21:34;;;;;;;0.55;0.32;;;16.40;69.30;;;;;;5041380;28;20462;-65
2023/11/07 03:24:00;;;;;;;0.65;0.30;;;16.40;69.30;;;;;;5045661;28;20044;-66
2023/11/07 03:26:25;;;;;;;0.82;0.55;;;16.40;69.30;;;;;;5047990;28;20025;-66
2023/11/07 03:28:52;;;;;;;0.85;0.52;;;16.40;69.30;;;;;;5046640;28;20552;-65
2023/11/07 03:31:17;;;;;;;0.85;0.40;;;16.40;69.30;;;;;;5044131;28;20033;-65
2023/11/07 03:33:43;;;;;;;0.50;0.40;;;16.40;69.30;;;;;;5045487;28;20515;-66
2023/11/07 03:36:09;;;;;;;0.68;0.40;;;16.40;69.30;;;;;;5046786;28;20041;-66
2023/11/07 03:38:34;;;;;;;1.65;0.30;;;16.40;69.30;;;;;;5045840;28;20036;-65
2023/11/07 03:41:02;;;;;;;0.50;0.32;;;16.40;69.30;;;;;;5058158;28;20058;-66
2023/11/07 03:43:28;;;;;;;1.45;0.50;;;16.40;69.30;;;;;;5042790;28;20026;-65
2023/11/07 03:45:53;;;;;;;1.17;0.50;;;16.40;69.30;;;;;;5044432;28;20060;-66
2023/11/07 03:48:19;;;;;;;0.50;0.40;;;16.40;69.30;;;;;;5044843;28;20577;-66
2023/11/07 03:50:44;;;;;;;0.95;0.50;;;16.40;69.30;;;;;;5044954;28;20044;-66
2023/11/07 03:53:10;;;;;;;1.48;0.40;;;16.40;69.30;;;;;;5046696;28;20025;-66
2023/11/07 03:55:36;;;;;;;0.30;0.30;;;16.40;69.30;;;;;;5047113;28;20028;-64
2023/11/07 03:58:01;;;;;;;1.13;0.60;;;16.40;69.30;;;;;;5042812;28;20021;-63
2023/11/07 04:00:27;;;;;;;0.47;0.47;;;16.40;69.30;;;;;;5044775;28;20029;-67
2023/11/07 04:02:52;;;;;;;0.50;0.40;;;16.40;69.30;;;;;;5049396;28;20025;-64
2023/11/07 04:05:18;;;;;;;1.48;0.50;;;16.40;69.30;;;;;;5049006;28;20055;-66
2023/11/07 04:07:43;;;;;;;1.17;0.50;;;16.40;69.30;;;;;;5048456;28;20037;-66
2023/11/07 04:10:09;;;;;;;0.60;0.40;;;16.40;69.90;;;;;;5047071;28;20045;-66
2023/11/07 04:12:35;;;;;;;1.00;0.32;;;16.40;69.30;;;;;;5049153;28;20025;-66
2023/11/07 04:15:04;;;;;;;0.57;0.47;;;16.40;69.30;;;;;;5048580;28;20112;-65
2023/11/07 04:17:29;;;;;;;0.50;0.50;;;16.40;69.30;;;;;;5049055;28;20591;-65
2023/11/07 04:19:55;;;;;;;0.70;0.30;;;16.40;69.30;;;;;;5048924;28;20128;-65
2023/11/07 04:22:20;;;;;;;0.82;0.35;;;16.40;69.30;;;;;;5049748;28;20029;-65
2023/11/07 04:24:47;;;;;;;1.55;0.30;;;16.40;69.30;;;;;;5045714;28;20029;-65
2023/11/07 04:27:12;;;;;;;1.02;0.57;;;16.40;69.30;;;;;;5040427;28;20387;-66
2023/11/07 04:29:38;;;;;;;0.82;0.22;;;16.40;69.30;;;;;;5042784;28;20040;-65
2023/11/07 04:32:04;;;;;;;0.63;0.20;;;16.40;69.30;;;;;;5045296;28;20025;-65
2023/11/07 04:34:30;;;;;;;1.25;0.45;;;16.40;69.30;;;;;;5043489;28;20025;-66
2023/11/07 04:36:56;;;;;;;0.93;0.40;;;16.40;69.30;;;;;;5042985;28;20041;-67
2023/11/07 04:39:21;;;;;;;1.27;0.30;;;16.40;69.30;;;;;;5048094;28;20037;-66
2023/11/07 04:41:47;;;;;;;0.47;0.32;;;16.40;69.30;;;;;;5044206;28;20045;-65
2023/11/07 04:44:13;;;;;;;1.38;0.40;;;16.40;69.30;;;;;;5043132;28;20044;-65
2023/11/07 04:46:39;;;;;;;0.88;0.40;;;16.40;69.30;;;;;;5044519;28;20083;-65
2023/11/07 04:49:07;;;;;;;0.50;0.40;;;16.40;69.30;;;;;;5041957;28;20025;-66
2023/11/07 04:51:32;;;;;;;0.50;0.38;;;16.40;69.30;;;;;;5044005;28;20058;-64
2023/11/07 04:53:58;;;;;;;0.73;0.40;;;16.40;69.30;;;;;;5041117;28;20075;-65
2023/11/07 04:56:23;;;;;;;1.15;0.40;;;16.40;69.30;;;;;;5037016;28;20392;-65
2023/11/07 04:58:49;;;;;;;0.85;0.40;;;16.40;69.30;;;;;;5039244;28;20131;-65
2023/11/07 05:01:15;;;;;;;1.02;0.32;;;16.40;69.30;;;;;;5037961;28;20036;-65
2023/11/07 05:03:44;;;;;;;0.80;0.32;;;16.40;69.30;;;;;;5041949;28;20490;-65
2023/11/07 05:06:09;;;;;;;1.30;0.30;;;16.40;69.30;;;;;;5043446;28;20033;-65
2023/11/07 05:08:35;;;;;;;0.38;0.20;;;16.40;69.30;;;;;;5042778;28;20036;-66
2023/11/07 05:11:00;;;;;;;0.88;0.40;;;16.30;69.20;;;;;;5049679;28;20391;-63
2023/11/07 05:13:27;;;;;;;0.65;0.50;;;16.40;69.30;;;;;;5046860;28;20017;-66
2023/11/07 05:15:53;;;;;;;0.63;0.35;;;16.40;69.20;;;;;;5045141;28;20052;-65
2023/11/07 05:18:19;;;;;;;0.32;0.30;;;16.40;69.30;;;;;;5043578;28;20036;-66
2023/11/07 05:20:45;;;;;;;0.63;0.30;;;16.30;69.20;;;;;;5040769;28;20017;-65
2023/11/07 05:23:11;;;;;;;1.02;0.30;;;16.30;69.20;;;;;;5041744;28;20055;-65
2023/11/07 05:25:36;;;;;;;0.70;0.30;;;16.30;69.20;;;;;;5041528;28;20048;-66
2023/11/07 05:28:04;;;;;;;0.95;0.30;;;16.40;69.30;;;;;;5052209;28;20029;-64
2023/11/07 05:30:30;;;;;;;0.30;0.25;;;16.40;69.30;;;;;;5046434;28;20059;-65
2023/11/07 05:32:56;;;;;;;0.80;0.30;;;16.40;69.30;;;;;;5048264;28;20040;-65
2023/11/07 05:35:22;;;;;;;0.60;0.25;;;16.40;69.20;;;;;;5051957;28;20126;-65
2023/11/07 05:37:48;;;;;;;0.52;0.38;;;16.30;69.20;;;;;;5057722;28;20035;-66
2023/11/07 05:40:15;;;;;;;1.42;0.70;;;16.40;69.30;;;;;;5051846;28;20250;-65
2023/11/07 05:42:41;;;;;;;1.00;0.30;;;16.40;69.30;;;;;;5052857;28;20059;-64
2023/11/07 05:45:10;;;;;;;0.75;0.40;;;16.30;69.20;;;;;;5052108;28;20511;-64
2023/11/07 05:47:37;;;;;;;0.80;0.65;;;16.40;69.30;;;;;;5056038;28;20021;-65
2023/11/07 05:50:04;;;;;;;1.15;0.30;;;16.40;69.30;;;;;;5052398;28;20264;-65
2023/11/07 05:52:31;;;;;;;0.52;0.40;;;16.40;69.30;;;;;;5055946;28;20032;-65
2023/11/07 05:54:56;;;;;;;0.30;0.30;;;16.30;69.20;;;;;;5048759;28;20033;-65
2023/11/07 05:57:22;;;;;;;0.77;0.40;;;16.40;69.20;;;;;;5046237;28;20029;-66
2023/11/07 05:59:48;;;;;;;0.38;0.20;;;16.40;69.30;;;;;;5046806;28;20033;-65
2023/11/07 06:02:13;;;;;;;0.65;0.43;;;16.40;69.30;;;;;;5055181;28;20112;-65
2023/11/07 06:04:39;;;;;;;0.90;0.32;;;16.40;69.30;;;;;;5046734;28;20029;-65
2023/11/07 06:07:04;;;;;;;1.33;0.32;;;16.30;69.20;;;;;;5055852;28;20217;-65
2023/11/07 06:09:31;;;;;;;0.43;0.32;;;16.40;69.30;;;;;;5050923;28;20110;-66
2023/11/07 06:11:56;;;;;;;0.85;0.30;;;16.40;69.20;;;;;;5048100;28;20249;-65
2023/11/07 06:14:23;;;;;;;0.40;0.30;;;16.30;69.20;;;;;;5046689;28;20036;-66
2023/11/07 06:16:49;;;;;;;0.30;0.30;;;16.40;69.30;;;;;;5052077;28;20035;-66
2023/11/07 06:19:15;;;;;;;0.75;0.38;;;16.30;69.30;;;;;;5053492;28;20033;-60
2023/11/07 06:21:40;;;;;;;0.52;0.30;;;16.30;69.30;;;;;;5047017;28;20036;-59
2023/11/07 06:24:06;;;;;;;2.15;0.50;;;16.40;69.30;;;;;;5045679;28;20025;-64
2023/11/07 06:26:33;;;;;;;0.73;0.40;;;16.30;69.30;;;;;;5038034;28;20033;-65
2023/11/07 06:28:58;;;;;;;1.65;0.40;;;16.40;69.40;;;;;;5040733;28;20399;-64
2023/11/07 06:31:27;;;;;;;0.52;0.32;;;16.40;69.50;;;;;;5041986;28;20025;-62
2023/11/07 06:33:53;;;;;;;0.25;0.25;;;16.40;69.50;;;;;;5038252;28;20049;-66
2023/11/07 06:36:19;;;;;;;1.50;0.45;;;16.30;69.40;;;;;;5039124;28;20048;-63
2023/11/07 06:38:45;;;;;;;2.35;0.30;;;16.30;69.40;;;;;;5039636;28;20029;-62
2023/11/07 06:41:11;;;;;;;1.20;0.40;;;16.30;69.60;;;;;;5039004;28;20064;-64
2023/11/07 06:43:39;;;;;;;2.25;0.47;;;16.30;69.40;;;;;;5040625;28;20025;-64
2023/11/07 06:46:04;;;;;;;1.95;0.30;;;16.40;69.50;;;;;;5038990;28;20029;-64
2023/11/07 06:48:30;;;;;;;0.60;0.40;;;16.30;69.40;;;;;;5038946;28;20356;-63
2023/11/07 06:50:57;;;;;;;2.35;0.60;;;16.40;69.50;;;;;;5039641;28;20044;-63
2023/11/07 06:53:23;;;;;;;2.60;0.50;;;16.40;69.50;;;;;;5039561;28;20032;-64
2023/11/07 06:55:48;;;;;;;3.05;0.50;;;16.30;69.40;;;;;;5039493;28;20040;-63
2023/11/07 06:58:14;;;;;;;1.02;0.50;;;16.40;69.50;;;;;;5039912;28;20029;-64
2023/11/07 07:00:39;;;;;;;1.23;0.70;;;16.30;69.40;;;;;;5040833;28;20037;-63
2023/11/07 07:03:06;;;;;;;3.00;0.50;;;16.30;69.50;;;;;;5040336;28;20078;-63
2023/11/07 07:05:31;;;;;;;3.67;0.82;;;16.30;69.40;;;;;;5044746;28;20033;-64
2023/11/07 07:07:57;;;;;;;1.00;0.47;;;16.30;69.40;;;;;;5040351;28;20025;-62
2023/11/07 07:10:23;;;;;;;2.10;0.88;;;16.40;69.50;;;;;;5044154;28;20039;-57
2023/11/07 07:12:49;;;;;;;2.92;0.90;;;16.30;69.40;;;;;;5039331;28;20032;-63
2023/11/07 07:15:14;;;;;;;2.05;1.13;;;16.30;69.50;;;;;;5038862;28;20029;-64
2023/11/07 07:17:40;;;;;;;3.28;1.13;;;16.30;70.10;;;;;;5038989;28;20478;-66
2023/11/07 07:20:13;;;;;;;2.75;1.08;;;16.30;69.50;;;;;;5041217;28;20120;-60
2023/11/07 07:22:41;;;;;;;3.50;1.20;;;16.40;69.50;;;;;;5037473;28;20033;-64
2023/11/07 07:25:16;;;;;;;2.50;1.50;;;16.30;69.40;;;;;;5035046;28;20049;-64
2023/11/07 07:27:46;;;;;;;4.00;2.10;;;16.40;69.50;;;;;;5046721;28;20510;-63
2023/11/07 07:30:20;;;;;;;4.22;1.80;;;16.30;69.50;;;;;;5044626;28;20033;-63
2023/11/07 07:32:49;;;;;;;3.38;1.85;;;16.30;69.50;;;;;;5050915;28;20029;-61
2023/11/07 07:35:16;;;;;;;3.65;1.73;;;16.30;69.40;;;;;;5048018;28;20025;-63
2023/11/07 07:37:42;;;;;;;7.03;2.20;;;16.30;69.50;;;;;;5046380;28;20029;-62
2023/11/07 07:40:14;;;;;;;3.78;2.35;;;16.30;69.50;;;;;;5044193;28;20090;-55
2023/11/07 07:42:43;;;;;;;4.93;2.83;;;16.30;69.40;;;;;;5044107;28;20041;-63
2023/11/07 07:45:11;;;;;;;5.25;1.90;;;16.30;69.40;;;;;;5047497;28;20025;-63
2023/11/07 07:47:37;;;;;;;5.78;1.73;;;16.40;69.50;;;;;;5047377;28;20147;-64
2023/11/07 07:50:10;;;;;;;2.45;1.65;;;16.40;69.50;;;;;;5048812;28;20036;-66
2023/11/07 07:52:43;;;;;;;2.97;2.00;;;16.30;69.40;;;;;;5052859;28;20449;-63
2023/11/07 07:55:09;;;;;;;5.25;2.30;;;16.30;69.40;;;;;;5052184;28;20036;-64
2023/11/07 07:57:38;;;;;;;5.55;2.50;;;16.30;69.40;;;;;;5050377;28;20033;-64
2023/11/07 08:00:11;;;;;;;6.93;2.65;;;16.40;69.50;;;;;;5047785;28;20500;-63
2023/11/07 08:02:46;;;;;;;6.97;2.65;;;16.30;69.50;;;;;;5054068;28;20048;-63
2023/11/07 08:05:17;;;;;;;6.95;2.95;;;16.30;69.50;;;;;;5049524;28;20025;-64
2023/11/07 08:07:43;;;;;;;4.72;2.45;;;16.30;69.50;;;;;;5051864;28;20043;-63
2023/11/07 08:10:16;;;;;;;5.85;2.55;;;16.30;69.50;;;;;;5051702;28;20025;-55
2023/11/07 08:12:51;;;;;;;7.28;2.75;;;16.30;69.50;;;;;;5051205;28;20041;-63
2023/11/07 08:15:17;;;;;;;;;;;16.30;69.50;;;;;;5048622;28;20036;-64
2023/11/07 08:17:43;;;;;;;4.90;2.65;;;16.30;69.50;;;;;;5047898;28;20259;-63
2023/11/07 08:20:15;;;;;;;5.32;2.33;;;16.30;69.50;;;;;;5051212;28;20120;-61
2023/11/07 08:22:42;;;;;;;6.40;2.70;;;16.30;69.50;;;;;;5047341;28;20048;-63
2023/11/07 08:25:10;;;;;;;5.75;2.90;;;16.30;69.50;;;;;;5044108;28;20406;-63
2023/11/07 08:27:39;;;;;;;7.32;2.72;;;16.30;69.50;;;;;;5041821;28;20033;-63
2023/11/07 08:30:10;;;;;;;6.63;2.67;;;16.30;69.50;;;;;;5044043;28;20044;-63
2023/11/07 08:32:36;;;;;;;7.57;2.80;;;16.30;69.50;;;;;;5045867;28;20507;-64
2023/11/07 08:35:05;;;;;;;7.03;3.35;;;16.40;69.50;;;;;;5046621;28;20411;-63
2023/11/07 08:37:31;;;;;;;7.07;2.45;;;16.30;69.40;;;;;;5043974;28;20053;-62
2023/11/07 08:39:57;;;;;;;4.18;2.55;;;16.40;69.80;;;;;;5044587;28;20041;-64
2023/11/07 08:42:25;;;;;;;6.45;3.08;;;16.30;69.50;;;;;;5041665;28;20040;-59
2023/11/07 08:44:50;;;;;;;6.65;2.92;;;16.40;69.50;;;;;;5042910;28;20376;-63
2023/11/07 08:47:18;;;;;;;6.50;2.55;;;16.30;69.40;;;;;;5041762;28;20026;-63
2023/11/07 08:49:43;;;;;;;7.85;3.08;;;16.40;69.50;;;;;;5039908;28;20041;-62
2023/11/07 08:52:09;;;;;;;6.55;2.47;;;16.30;69.40;;;;;;5043640;28;20036;-61
2023/11/07 08:54:36;;;;;;;14.25;2.90;;;16.30;69.50;;;;;;5044524;28;20033;-63
2023/11/07 08:57:04;;;;;;;4.32;2.20;;;16.30;69.50;;;;;;5042283;28;20480;-64
2023/11/07 08:59:30;;;;;;;5.78;2.30;;;16.30;69.50;;;;;;5043929;28;20098;-63
2023/11/07 09:01:55;;;;;;;7.53;2.83;;;16.30;69.70;;;;;;5046346;28;20029;-63
2023/11/07 09:04:21;;;;;;;4.75;2.75;;;16.30;69.50;;;;;;5041340;28;20103;-62
2023/11/07 09:06:47;;;;;;;4.72;2.60;;;16.30;69.50;;;;;;5045381;28;20244;-63
2023/11/07 09:09:14;;;;;;;6.10;2.80;;;16.30;69.50;;;;;;5043524;28;20273;-64
2023/11/07 09:11:43;;;;;;;6.18;2.33;;;16.40;69.50;;;;;;5043853;28;20337;-64
2023/11/07 09:14:09;;;;;;;7.18;3.55;;;16.30;69.50;;;;;;5041793;28;20063;-64
2023/11/07 09:16:34;;;;;;;5.53;2.58;;;16.30;69.50;;;;;;5046476;28;20064;-65
2023/11/07 09:19:00;;;;;;;6.30;2.30;;;16.40;69.50;;;;;;5039233;28;20431;-64
2023/11/07 09:21:26;;;;;;;4.65;2.53;;;16.30;69.50;;;;;;5040351;28;20742;-65
2023/11/07 09:23:53;;;;;;;5.97;2.95;;;16.40;69.50;;;;;;5041013;28;20039;-65
2023/11/07 09:26:19;;;;;;;4.68;2.60;;;16.30;69.40;;;;;;5041913;28;20086;-64
2023/11/07 09:28:44;;;;;;;4.97;2.30;;;16.30;69.40;;;;;;5047511;28;20112;-64
2023/11/07 09:31:12;;;;;;;5.28;2.13;;;16.30;69.40;;;;;;5046488;28;20032;-64
2023/11/07 09:33:38;;;;;;;5.25;2.85;;;16.30;69.40;;;;;;5048894;28;20040;-64
2023/11/07 09:36:04;;;;;;;5.72;2.20;;;16.30;69.40;;;;;;5048928;28;20033;-62
2023/11/07 09:38:29;;;;;;;5.32;2.50;;;16.30;69.40;;;;;;5047227;28;20491;-64
2023/11/07 09:40:57;;;;;;;9.07;2.53;;;16.30;69.40;;;;;;5048853;28;20040;-65
2023/11/07 09:43:26;;;;;;;4.35;1.95;;;16.30;69.40;;;;;;5048507;28;20492;-64
2023/11/07 09:45:55;;;;;;;4.60;1.42;;;16.30;69.40;;;;;;5048127;28;20032;-63
2023/11/07 09:48:25;;;;;;;3.85;2.17;;;16.30;69.40;;;;;;5046339;28;20064;-65
2023/11/07 09:50:54;;;;;;;4.22;2.13;;;16.30;69.40;;;;;;5042700;28;20028;-62
2023/11/07 09:53:20;;;;;;;4.72;2.10;;;16.30;69.40;;;;;;5046090;28;20391;-64
2023/11/07 09:55:46;;;;;;;4.05;1.98;;;16.30;69.40;;;;;;5049199;28;20051;-63
2023/11/07 09:58:23;;;;;;;3.28;2.10;;;16.30;69.30;;;;;;5047614;28;20029;-63
2023/11/07 10:00:52;;;;;;;3.63;1.85;;;16.40;69.40;;;;;;5047391;28;20535;-65
2023/11/07 10:03:18;;;;;;;2.92;1.63;;;16.40;69.40;;;;;;5047729;28;20131;-63
2023/11/07 10:05:47;;;;;;;4.28;1.80;;;16.40;69.40;;;;;;5045971;28;20037;-61
2023/11/07 10:08:12;;;;;;;3.67;1.60;;;16.30;69.40;;;;;;5046318;28;20483;-63
2023/11/07 10:10:39;;;;;;;3.00;1.70;;;16.30;69.30;;;;;;5042809;28;20082;-62
2023/11/07 10:13:12;;;;;;;2.53;1.55;;;16.30;69.40;;;;;;5041591;28;20024;-64
2023/11/07 10:15:38;;;;;;;3.63;1.77;;;16.40;69.40;;;;;;5041910;28;20060;-64
2023/11/07 10:18:06;;;;;;;3.97;1.50;;;16.30;69.30;;;;;;5037764;28;20521;-64
2023/11/07 10:20:32;;;;;;;3.17;1.60;;;16.40;69.30;;;;;;5040973;28;20064;-63
2023/11/07 10:22:59;;;;;;;2.83;1.60;;;16.40;69.30;;;;;;5044661;28;20040;-64
2023/11/07 10:25:35;;;;;;;3.17;1.55;;;16.40;69.30;;;;;;5043188;28;20025;-64
2023/11/07 10:28:02;;;;;;;3.00;1.50;;;16.40;69.20;;;;;;5043101;28;20064;-63
2023/11/07 10:30:35;;;;;;;2.40;1.42;;;16.30;69.20;;;;;;5042880;28;20543;-60
2023/11/07 10:33:01;;;;;;;2.20;1.10;;;16.40;69.20;;;;;;5040676;28;20044;-64
2023/11/07 10:35:27;;;;;;;4.32;1.42;;;16.30;69.10;;;;;;5043096;28;20029;-64
2023/11/07 10:37:52;;;;;;;2.03;1.25;;;16.30;69.00;;;;;;5039939;28;20055;-64
2023/11/07 10:40:18;;;;;;;2.33;1.25;;;16.40;69.10;;;;;;5040221;28;20064;-64
2023/11/07 10:42:47;;;;;;;2.25;1.25;;;16.30;69.00;;;;;;5041757;28;20036;-64
2023/11/07 10:45:15;;;;;;;3.63;1.60;;;16.40;69.00;;;;;;5038060;28;20502;-64
2023/11/07 10:47:42;;;;;;;2.38;1.20;;;16.40;69.00;;;;;;5040994;28;20087;-65
2023/11/07 10:50:08;;;;;;;3.13;1.00;;;16.30;68.80;;;;;;5041755;28;20376;-60
2023/11/07 10:52:34;;;;;;;4.82;1.48;;;16.40;68.80;;;;;;5038961;28;20029;-64
2023/11/07 10:55:03;;;;;;;5.07;1.65;;;16.40;68.80;;;;;;5042619;28;20039;-65
2023/11/07 10:57:33;;;;;;;2.35;1.02;;;16.40;68.80;;;;;;5039439;28;20259;-65
2023/11/07 11:00:12;;;;;;;3.47;1.35;;;16.40;68.70;;;;;;5042375;28;20041;-64
2023/11/07 11:02:41;;;;;;;2.65;0.90;;;16.40;68.70;;;;;;5040747;28;20048;-64
2023/11/07 11:05:11;;;;;;;2.30;0.93;;;16.40;68.60;;;;;;5040813;28;20034;-65
2023/11/07 11:07:43;;;;;;;1.77;1.02;;;16.40;68.60;;;;;;5038853;28;20040;-65
2023/11/07 11:10:10;;;;;;;0.80;0.75;;;16.40;68.50;;;;;;5040542;28;20038;-61
2023/11/07 11:12:36;;;;;;;3.53;1.08;;;16.40;68.40;;;;;;5041484;28;20056;-65
2023/11/07 11:15:03;;;;;;;2.33;1.15;;;16.40;68.40;;;;;;5041155;28;20429;-64
2023/11/07 11:17:47;;;;;;;1.33;0.77;;;16.40;68.50;;;;;;5037246;28;20064;-65
2023/11/07 11:20:32;;;;;;;3.17;0.90;;;16.40;68.40;;;;;;5038997;28;20044;-65
2023/11/07 11:23:16;;;;;;;1.98;1.15;;;16.40;68.50;;;;;;5039911;28;20586;-62
2023/11/07 11:26:01;;;;;;;1.75;1.42;;;16.40;68.30;;;;;;5038224;28;20042;-65
2023/11/07 11:28:40;;;;;;;2.38;0.90;;;16.40;68.30;;;;;;5039862;28;20033;-65
2023/11/07 11:31:08;;;;;;;1.40;0.90;;;16.40;68.40;;;;;;5039467;28;20116;-65
2023/11/07 11:33:34;;;;;;;1.42;0.70;;;16.40;68.30;;;;;;5042814;28;20037;-65
2023/11/07 11:35:59;;;;;;;1.77;0.60;;;16.40;68.20;;;;;;5043478;28;20033;-66
2023/11/07 11:38:43;;;;;;;1.13;0.70;;;16.40;68.30;;;;;;5043822;28;20040;-65
2023/11/07 11:41:10;;;;;;;1.70;0.70;;;16.40;68.20;;;;;;5040318;28;20048;-66
2023/11/07 11:44:14;;;;;;;2.05;1.30;;;16.40;68.40;;;;;;5039856;28;20118;-66
2023/11/07 11:46:40;;;;;;;2.75;1.30;;;16.40;68.40;;;;;;5042040;28;20040;-65
2023/11/07 11:49:16;;;;;;;2.47;0.82;;;16.40;68.40;;;;;;5042437;28;20021;-65
2023/11/07 11:51:42;;;;;;;2.00;1.20;;;16.40;68.40;;;;;;5041521;28;20084;-66
2023/11/07 11:54:09;;;;;;;1.05;0.68;;;16.40;68.40;;;;;;5040936;28;20024;-65
2023/11/07 11:56:50;;;;;;;1.75;0.70;;;16.40;68.40;;;;;;5042312;28;20029;-64
2023/11/07 11:59:19;;;;;;;1.98;0.75;;;16.30;68.40;;;;;;5046089;28;20060;-65
2023/11/07 12:01:53;;;;;;;3.20;0.90;;;16.30;68.50;;;;;;5038408;28;20032;-64
2023/11/07 12:04:40;;;;;;;1.58;0.70;;;16.30;68.50;;;;;;5044219;28;20039;-63
2023/11/07 12:07:20;;;;;;;1.40;0.63;;;16.40;68.50;;;;;;5043741;28;20025;-63
2023/11/07 12:09:51;;;;;;;3.20;0.90;;;16.40;68.60;;;;;;5037876;28;20694;-64
2023/11/07 12:12:18;;;;;;;1.63;0.93;;;16.30;68.50;;;;;;5054770;28;20025;-63
2023/11/07 12:15:02;;;;;;;1.80;0.60;;;16.30;68.50;;;;;;4155203;28;10000545;-65
2023/11/07 12:17:41;;;;;;;1.52;0.88;;;16.30;68.50;;;;;;5061706;28;20036;-63
2023/11/07 12:20:11;;;;;;;1.70;0.80;;;16.30;68.60;;;;;;5030367;28;20287;-61
2023/11/07 12:22:37;;;;;;;0.82;0.50;;;16.40;68.60;;;;;;5059625;28;20052;-60
2023/11/07 12:25:13;;;;;;;1.95;0.80;;;16.30;68.60;;;;;;5033932;28;20037;-63
2023/11/07 12:28:05;;;;;;;1.17;0.75;;;16.40;68.70;;;;;;5045549;28;20029;-64
2023/11/07 12:30:34;;;;;;;1.33;1.13;;;16.30;68.70;;;;;;5045639;28;20058;-63
2023/11/07 12:33:07;;;;;;;0.60;0.40;;;16.40;68.70;;;;;;5058908;28;20570;-64
2023/11/07 12:35:32;;;;;;;4.13;0.63;;;16.40;68.70;;;;;;5046234;28;20045;-63
2023/11/07 12:38:08;;;;;;;1.48;0.50;;;16.30;68.70;;;;;;5048288;28;20472;-63
2023/11/07 12:40:35;;;;;;;0.90;0.60;;;16.40;68.70;;;;;;5046984;28;20063;-63
2023/11/07 12:43:01;;;;;;;1.38;0.60;;;16.30;68.70;;;;;;5031421;28;20021;-64
2023/11/07 12:45:28;;;;;;;1.40;0.65;;;16.30;68.70;;;;;;5032761;28;20033;-64
2023/11/07 12:48:06;;;;;;;1.40;0.47;;;16.30;68.70;;;;;;5039933;28;20403;-62
2023/11/07 12:50:33;;;;;;;1.67;0.73;;;16.40;68.70;;;;;;5038715;28;20403;-63